createdAt,value
2018-03-15T00:00:19.250Z,99415.75
2018-03-15T00:01:21.743Z,99419.30
2018-03-15T00:02:28.214Z,99411.05
2018-03-15T00:03:34.620Z,99424.00
2018-03-15T00:04:37.128Z,99418.50
2018-03-15T00:05:39.646Z,99414.37
2018-03-15T00:06:42.142Z,99410.83
2018-03-15T00:07:44.660Z,99411.80
2018-03-15T00:08:47.155Z,99412.96
2018-03-15T00:09:49.704Z,99411.00
2018-03-15T00:10:52.213Z,99411.19
2018-03-15T00:11:54.694Z,99403.33
2018-03-15T00:12:57.182Z,99399.20
2018-03-15T00:13:59.705Z,99402.22
2018-03-15T00:15:02.222Z,99395.95
2018-03-15T00:16:04.729Z,99390.89
2018-03-15T00:17:07.236Z,99395.81
2018-03-15T00:18:09.743Z,99388.00
2018-03-15T00:19:12.369Z,99387.85
2018-03-15T00:20:19.430Z,99385.50
2018-03-15T00:21:21.918Z,99387.67
2018-03-15T00:22:24.434Z,99381.59
2018-03-15T00:23:26.937Z,99382.78
2018-03-15T00:24:29.492Z,99378.26
2018-03-15T00:25:32.040Z,99384.16
2018-03-15T00:26:34.544Z,99379.86
2018-03-15T00:27:37.063Z,99379.50
2018-03-15T00:28:39.594Z,99382.25
2018-03-15T00:29:42.098Z,99381.45
2018-03-15T00:30:44.623Z,99381.48
2018-03-15T00:31:47.137Z,99375.55
2018-03-15T00:32:49.703Z,99382.20
2018-03-15T00:33:52.220Z,99382.34
2018-03-15T00:34:54.756Z,99377.82
2018-03-15T00:35:57.253Z,99377.42
2018-03-15T00:36:59.780Z,99375.17
2018-03-15T00:38:02.284Z,99376.55
2018-03-15T00:39:04.794Z,99364.75
2018-03-15T00:40:07.334Z,99375.53
2018-03-15T00:41:09.845Z,99371.59
2018-03-15T00:42:12.407Z,99371.37
2018-03-15T00:43:14.884Z,99363.69
2018-03-15T00:44:17.371Z,99371.33
2018-03-15T00:45:19.894Z,99366.80
2018-03-15T00:46:22.396Z,99368.98
2018-03-15T00:47:24.917Z,99365.82
2018-03-15T00:48:27.416Z,99363.65
2018-03-15T00:49:29.993Z,99367.38
2018-03-15T00:50:32.525Z,99364.23
2018-03-15T00:51:35.037Z,99363.83
2018-03-15T00:52:37.550Z,99364.23
2018-03-15T00:53:40.081Z,99360.68
2018-03-15T00:54:42.586Z,99361.08
2018-03-15T00:55:45.131Z,99364.80
2018-03-15T00:56:47.649Z,99360.68
2018-03-15T00:57:50.322Z,99359.48
2018-03-15T00:58:52.843Z,99355.53
2018-03-15T00:59:55.346Z,99359.27
2018-03-15T01:00:57.873Z,99357.27
2018-03-15T01:02:00.387Z,99354.52
2018-03-15T01:03:02.894Z,99354.92
2018-03-15T01:04:05.414Z,99355.09
2018-03-15T01:05:07.918Z,99356.87
2018-03-15T01:06:10.439Z,99349.77
2018-03-15T01:07:12.939Z,99355.67
2018-03-15T01:08:15.472Z,99356.08
2018-03-15T01:09:17.966Z,99361.17
2018-03-15T01:10:20.466Z,99355.28
2018-03-15T01:11:22.992Z,99359.19
2018-03-15T01:12:25.508Z,99363.70
2018-03-15T01:13:28.026Z,99360.31
2018-03-15T01:14:30.514Z,99362.66
2018-03-15T01:15:33.002Z,99366.64
2018-03-15T01:16:35.547Z,99371.89
2018-03-15T01:17:38.062Z,99364.61
2018-03-15T01:18:40.557Z,99356.94
2018-03-15T01:19:43.059Z,99361.64
2018-03-15T01:20:45.578Z,99353.83
2018-03-15T01:21:48.104Z,99352.56
2018-03-15T01:22:50.622Z,99356.33
2018-03-15T01:23:53.121Z,99347.32
2018-03-15T01:24:55.645Z,99352.47
2018-03-15T01:25:58.163Z,99350.52
2018-03-15T01:27:00.697Z,99344.83
2018-03-15T01:28:03.225Z,99349.17
2018-03-15T01:29:05.746Z,99345.27
2018-03-15T01:30:08.238Z,99338.39
2018-03-15T01:31:10.723Z,99336.79
2018-03-15T01:32:13.253Z,99341.72
2018-03-15T01:33:15.770Z,99340.34
2018-03-15T01:34:18.272Z,99339.19
2018-03-15T01:35:20.896Z,99335.09
2018-03-15T01:36:23.412Z,99338.03
2018-03-15T01:37:25.919Z,99331.77
2018-03-15T01:38:28.421Z,99329.98
2018-03-15T01:39:30.927Z,99322.89
2018-03-15T01:40:33.452Z,99323.69
2018-03-15T01:41:35.958Z,99322.71
2018-03-15T01:42:38.490Z,99317.39
2018-03-15T01:43:41.011Z,99317.35
2018-03-15T01:44:43.527Z,99314.20
2018-03-15T01:45:46.014Z,99311.62
2018-03-15T01:46:48.518Z,99310.22
2018-03-15T01:47:51.026Z,99309.99
2018-03-15T01:48:53.523Z,99301.70
2018-03-15T01:49:56.078Z,99304.63
2018-03-15T01:50:58.601Z,99302.23
2018-03-15T01:52:01.090Z,99307.13
2018-03-15T01:53:03.621Z,99297.28
2018-03-15T01:54:06.120Z,99295.50
2018-03-15T01:55:08.628Z,99297.20
2018-03-15T01:56:11.137Z,99296.98
2018-03-15T01:57:13.690Z,99300.54
2018-03-15T01:58:16.198Z,99292.11
2018-03-15T01:59:18.682Z,99284.83
2018-03-15T02:00:21.179Z,99292.75
2018-03-15T02:01:23.672Z,99286.42
2018-03-15T02:02:26.197Z,99285.05
2018-03-15T02:03:28.697Z,99285.88
2018-03-15T02:04:31.216Z,99288.23
2018-03-15T02:05:33.730Z,99282.30
2018-03-15T02:06:36.227Z,99279.33
2018-03-15T02:07:38.771Z,99280.30
2018-03-15T02:08:41.281Z,99271.43
2018-03-15T02:09:43.794Z,99281.06
2018-03-15T02:10:46.296Z,99270.86
2018-03-15T02:11:48.822Z,99270.86
2018-03-15T02:12:51.351Z,99264.34
2018-03-15T02:13:53.861Z,99265.49
2018-03-15T02:14:56.368Z,99271.17
2018-03-15T02:15:58.873Z,99268.20
2018-03-15T02:17:01.373Z,99267.63
2018-03-15T02:18:03.906Z,99263.10
2018-03-15T02:19:06.510Z,99261.11
2018-03-15T02:20:09.071Z,99261.11
2018-03-15T02:21:11.593Z,99252.06
2018-03-15T02:22:14.123Z,99260.89
2018-03-15T02:23:16.659Z,99256.15
2018-03-15T02:24:19.160Z,99252.38
2018-03-15T02:25:21.654Z,99251.19
2018-03-15T02:26:24.174Z,99245.64
2018-03-15T02:27:26.666Z,99242.67
2018-03-15T02:28:29.195Z,99243.41
2018-03-15T02:29:31.704Z,99247.13
2018-03-15T02:30:34.208Z,99243.77
2018-03-15T02:31:36.695Z,99236.48
2018-03-15T02:32:39.202Z,99234.50
2018-03-15T02:33:41.761Z,99234.50
2018-03-15T02:34:44.264Z,99230.73
2018-03-15T02:35:46.777Z,99228.95
2018-03-15T02:36:49.262Z,99228.74
2018-03-15T02:37:51.775Z,99223.23
2018-03-15T02:38:54.334Z,99229.31
2018-03-15T02:39:56.863Z,99226.56
2018-03-15T02:40:59.401Z,99221.07
2018-03-15T02:42:01.939Z,99223.42
2018-03-15T02:43:04.453Z,99211.05
2018-03-15T02:44:06.986Z,99213.58
2018-03-15T02:45:09.506Z,99211.22
2018-03-15T02:46:12.051Z,99215.34
2018-03-15T02:47:14.581Z,99207.83
2018-03-15T02:48:17.071Z,99211.41
2018-03-15T02:49:19.591Z,99207.83
2018-03-15T02:50:22.102Z,99208.41
2018-03-15T02:51:24.582Z,99201.70
2018-03-15T02:52:27.089Z,99206.02
2018-03-15T02:53:29.600Z,99203.84
2018-03-15T02:54:32.134Z,99198.74
2018-03-15T02:55:34.660Z,99198.92
2018-03-15T02:56:37.146Z,99201.67
2018-03-15T02:57:39.653Z,99201.89
2018-03-15T02:58:42.636Z,99195.02
2018-03-15T02:59:45.179Z,99197.98
2018-03-15T03:00:47.696Z,99193.86
2018-03-15T03:01:50.207Z,99201.89
2018-03-15T03:02:52.717Z,99203.27
2018-03-15T03:03:55.262Z,99201.89
2018-03-15T03:04:57.793Z,99197.77
2018-03-15T03:06:00.291Z,99193.06
2018-03-15T03:07:03.007Z,99192.66
2018-03-15T03:08:05.502Z,99189.12
2018-03-15T03:09:08.013Z,99201.09
2018-03-15T03:10:10.559Z,99195.77
2018-03-15T03:11:13.079Z,99195.55
2018-03-15T03:12:15.584Z,99197.91
2018-03-15T03:13:18.074Z,99194.51
2018-03-15T03:14:20.586Z,99194.11
2018-03-15T03:15:23.102Z,99192.34
2018-03-15T03:16:25.630Z,99199.39
2018-03-15T03:17:28.128Z,99183.47
2018-03-15T03:18:30.628Z,99186.80
2018-03-15T03:19:33.124Z,99187.38
2018-03-15T03:20:35.645Z,99186.98
2018-03-15T03:21:38.185Z,99191.28
2018-03-15T03:22:40.706Z,99187.34
2018-03-15T03:23:43.208Z,99181.05
2018-03-15T03:24:45.708Z,99177.53
2018-03-15T03:25:48.278Z,99172.84
2018-03-15T03:26:50.776Z,99176.16
2018-03-15T03:27:53.272Z,99168.71
2018-03-15T03:28:55.776Z,99170.84
2018-03-15T03:29:58.273Z,99165.70
2018-03-15T03:31:00.806Z,99168.05
2018-03-15T03:32:03.338Z,99155.06
2018-03-15T03:33:05.840Z,99157.42
2018-03-15T03:34:08.337Z,99160.34
2018-03-15T03:35:10.826Z,99162.70
2018-03-15T03:36:13.357Z,99153.83
2018-03-15T03:37:15.917Z,99169.35
2018-03-15T03:38:18.435Z,99162.84
2018-03-15T03:39:20.948Z,99154.55
2018-03-15T03:40:23.601Z,99157.88
2018-03-15T03:41:26.124Z,99154.88
2018-03-15T03:42:28.624Z,99156.44
2018-03-15T03:43:31.145Z,99156.04
2018-03-15T03:44:33.662Z,99152.67
2018-03-15T03:45:36.165Z,99148.16
2018-03-15T03:46:38.727Z,99140.13
2018-03-15T03:47:41.210Z,99149.75
2018-03-15T03:48:43.864Z,99154.66
2018-03-15T03:49:46.362Z,99152.50
2018-03-15T03:50:48.876Z,99152.72
2018-03-15T03:51:51.406Z,99154.09
2018-03-15T03:52:53.918Z,99145.66
2018-03-15T03:53:56.434Z,99148.26
2018-03-15T03:54:58.953Z,99145.91
2018-03-15T03:56:01.458Z,99151.01
2018-03-15T03:57:03.984Z,99143.16
2018-03-15T03:58:06.476Z,99151.41
2018-03-15T03:59:08.989Z,99146.48
2018-03-15T04:00:11.509Z,99148.48
2018-03-15T04:01:14.123Z,99144.75
2018-03-15T04:02:16.642Z,99138.89
2018-03-15T04:03:19.331Z,99143.23
2018-03-15T04:04:21.820Z,99145.63
2018-03-15T04:05:24.440Z,99143.45
2018-03-15T04:06:26.935Z,99145.98
2018-03-15T04:07:29.469Z,99135.39
2018-03-15T04:08:31.972Z,99134.77
2018-03-15T04:09:34.469Z,99128.48
2018-03-15T04:10:37.061Z,99131.63
2018-03-15T04:11:39.550Z,99126.09
2018-03-15T04:12:42.054Z,99129.56
2018-03-15T04:13:44.546Z,99128.77
2018-03-15T04:14:47.060Z,99124.25
2018-03-15T04:15:49.558Z,99118.93
2018-03-15T04:16:52.075Z,99112.63
2018-03-15T04:17:54.590Z,99107.31
2018-03-15T04:18:57.088Z,99104.97
2018-03-15T04:19:59.593Z,99101.81
2018-03-15T04:21:02.107Z,99098.09
2018-03-15T04:22:04.629Z,99096.90
2018-03-15T04:23:07.138Z,99091.58
2018-03-15T04:24:09.630Z,99087.28
2018-03-15T04:25:12.148Z,99093.75
2018-03-15T04:26:14.662Z,99093.17
2018-03-15T04:27:17.185Z,99091.62
2018-03-15T04:28:19.719Z,99085.14
2018-03-15T04:29:22.219Z,99084.34
2018-03-15T04:30:24.727Z,99083.55
2018-03-15T04:31:27.229Z,99075.70
2018-03-15T04:32:29.744Z,99077.66
2018-03-15T04:33:32.279Z,99073.31
2018-03-15T04:34:34.784Z,99075.09
2018-03-15T04:35:37.281Z,99070.17
2018-03-15T04:36:39.789Z,99073.31
2018-03-15T04:37:42.327Z,99064.67
2018-03-15T04:38:44.841Z,99072.13
2018-03-15T04:39:47.344Z,99061.70
2018-03-15T04:40:49.851Z,99068.58
2018-03-15T04:41:52.367Z,99070.71
2018-03-15T04:42:54.870Z,99067.74
2018-03-15T04:43:57.392Z,99064.20
2018-03-15T04:44:59.897Z,99060.66
2018-03-15T04:46:02.408Z,99059.64
2018-03-15T04:47:04.908Z,99057.47
2018-03-15T04:48:07.437Z,99059.20
2018-03-15T04:49:09.956Z,99064.09
2018-03-15T04:50:12.448Z,99058.20
2018-03-15T04:51:14.959Z,99058.13
2018-03-15T04:52:17.468Z,99064.20
2018-03-15T04:53:19.962Z,99050.46
2018-03-15T04:54:22.494Z,99039.83
2018-03-15T04:55:25.000Z,99040.81
2018-03-15T04:56:27.505Z,99038.81
2018-03-15T04:57:30.005Z,99042.55
2018-03-15T04:58:32.551Z,99034.08
2018-03-15T04:59:35.052Z,99035.64
2018-03-15T05:00:37.566Z,99038.56
2018-03-15T05:01:40.060Z,99033.25
2018-03-15T05:02:42.554Z,99023.63
2018-03-15T05:03:45.060Z,99033.43
2018-03-15T05:04:47.588Z,99020.09
2018-03-15T05:05:50.102Z,99021.83
2018-03-15T05:06:52.608Z,99026.34
2018-03-15T05:07:55.121Z,99018.89
2018-03-15T05:08:57.701Z,99022.08
2018-03-15T05:10:00.229Z,99013.62
2018-03-15T05:11:02.763Z,99011.08
2018-03-15T05:12:05.306Z,99007.54
2018-03-15T05:13:07.822Z,98998.10
2018-03-15T05:14:10.308Z,99001.43
2018-03-15T05:15:12.890Z,99006.53
2018-03-15T05:16:15.397Z,99004.76
2018-03-15T05:17:17.892Z,98996.70
2018-03-15T05:18:20.407Z,98997.67
2018-03-15T05:19:22.918Z,98991.38
2018-03-15T05:20:25.440Z,98992.75
2018-03-15T05:21:28.015Z,98995.90
2018-03-15T05:22:30.502Z,98993.33
2018-03-15T05:23:32.996Z,98991.95
2018-03-15T05:24:35.500Z,98985.09
2018-03-15T05:25:38.025Z,98989.39
2018-03-15T05:26:40.556Z,98991.95
2018-03-15T05:27:43.082Z,98995.69
2018-03-15T05:28:45.603Z,98987.44
2018-03-15T05:29:48.126Z,98987.22
2018-03-15T05:30:50.667Z,98985.05
2018-03-15T05:31:53.340Z,98986.20
2018-03-15T05:32:55.831Z,98989.11
2018-03-15T05:33:58.346Z,98982.81
2018-03-15T05:35:00.855Z,98983.76
2018-03-15T05:36:03.441Z,98985.53
2018-03-15T05:37:05.948Z,98981.02
2018-03-15T05:38:08.470Z,98983.54
2018-03-15T05:39:11.131Z,98986.87
2018-03-15T05:40:13.636Z,98989.40
2018-03-15T05:41:16.160Z,98992.72
2018-03-15T05:42:18.702Z,98992.11
2018-03-15T05:43:21.223Z,98990.34
2018-03-15T05:44:23.734Z,98995.44
2018-03-15T05:45:26.267Z,98990.52
2018-03-15T05:46:29.043Z,98995.00
2018-03-15T05:47:31.580Z,99000.50
2018-03-15T05:48:34.118Z,98988.89
2018-03-15T05:49:36.645Z,98994.56
2018-03-15T05:50:39.161Z,98987.30
2018-03-15T05:51:41.666Z,98986.91
2018-03-15T05:52:44.205Z,98982.78
2018-03-15T05:53:46.708Z,98976.31
2018-03-15T05:54:49.231Z,98983.94
2018-03-15T05:55:51.750Z,98978.05
2018-03-15T05:56:54.252Z,98974.91
2018-03-15T05:57:56.762Z,98979.60
2018-03-15T05:58:59.271Z,98982.10
2018-03-15T06:00:01.863Z,98974.05
2018-03-15T06:01:04.385Z,98978.34
2018-03-15T06:02:06.884Z,98980.69
2018-03-15T06:03:09.380Z,98972.63
2018-03-15T06:04:11.892Z,98978.31
2018-03-15T06:05:14.394Z,98972.81
2018-03-15T06:06:16.922Z,98974.77
2018-03-15T06:07:19.463Z,98968.47
2018-03-15T06:08:21.960Z,98971.22
2018-03-15T06:09:24.478Z,98970.61
2018-03-15T06:10:26.996Z,98969.81
2018-03-15T06:11:29.545Z,98974.33
2018-03-15T06:12:32.132Z,98971.19
2018-03-15T06:13:34.783Z,98967.64
2018-03-15T06:14:37.297Z,98974.51
2018-03-15T06:15:39.826Z,98967.83
2018-03-15T06:16:42.344Z,98964.68
2018-03-15T06:17:44.873Z,98972.70
2018-03-15T06:18:47.366Z,98959.33
2018-03-15T06:19:49.850Z,98971.51
2018-03-15T06:20:52.376Z,98965.84
2018-03-15T06:21:54.916Z,98961.72
2018-03-15T06:22:57.454Z,98966.63
2018-03-15T06:24:00.033Z,98961.14
2018-03-15T06:25:02.544Z,98971.55
2018-03-15T06:26:05.057Z,98964.89
2018-03-15T06:27:07.606Z,98963.70
2018-03-15T06:28:10.118Z,98964.09
2018-03-15T06:29:12.657Z,98968.00
2018-03-15T06:30:15.132Z,98974.88
2018-03-15T06:31:17.636Z,98960.92
2018-03-15T06:32:20.161Z,98970.93
2018-03-15T06:33:22.709Z,98980.55
2018-03-15T06:34:25.206Z,98967.57
2018-03-15T06:35:27.721Z,98977.58
2018-03-15T06:36:30.224Z,98982.89
2018-03-15T06:37:32.803Z,98984.27
2018-03-15T06:38:35.343Z,98984.05
2018-03-15T06:39:37.899Z,98986.00
2018-03-15T06:40:40.404Z,98979.53
2018-03-15T06:41:42.974Z,98983.66
2018-03-15T06:42:45.529Z,98989.33
2018-03-15T06:43:48.023Z,98992.07
2018-03-15T06:44:50.566Z,98989.91
2018-03-15T06:45:53.069Z,98984.80
2018-03-15T06:46:55.565Z,98993.23
2018-03-15T06:47:58.260Z,98991.06
2018-03-15T06:49:00.762Z,98984.95
2018-03-15T06:50:03.259Z,98981.45
2018-03-15T06:51:05.819Z,98974.36
2018-03-15T06:52:08.350Z,98973.97
2018-03-15T06:53:10.877Z,98978.09
2018-03-15T06:54:13.418Z,98971.61
2018-03-15T06:55:15.910Z,98971.61
2018-03-15T06:56:18.398Z,98963.53
2018-03-15T06:57:20.893Z,98965.33
2018-03-15T06:58:23.413Z,98962.16
2018-03-15T06:59:25.935Z,98959.01
2018-03-15T07:00:28.448Z,98959.59
2018-03-15T07:01:30.937Z,98955.25
2018-03-15T07:02:33.452Z,98949.76
2018-03-15T07:03:36.892Z,98948.74
2018-03-15T07:04:39.407Z,98949.72
2018-03-15T07:05:42.035Z,98949.90
2018-03-15T07:06:44.528Z,98954.59
2018-03-15T07:07:47.010Z,98951.63
2018-03-15T07:08:49.515Z,98953.41
2018-03-15T07:09:52.012Z,98948.31
2018-03-15T07:10:54.531Z,98949.72
2018-03-15T07:11:57.063Z,98948.74
2018-03-15T07:12:59.586Z,98948.74
2018-03-15T07:14:02.126Z,98947.95
2018-03-15T07:15:04.920Z,98950.30
2018-03-15T07:16:07.433Z,98941.27
2018-03-15T07:17:09.970Z,98952.43
2018-03-15T07:18:12.491Z,98952.79
2018-03-15T07:19:15.017Z,98953.59
2018-03-15T07:20:17.540Z,98944.30
2018-03-15T07:21:20.322Z,98954.70
2018-03-15T07:22:22.836Z,98950.59
2018-03-15T07:23:25.363Z,98952.75
2018-03-15T07:24:27.900Z,98949.64
2018-03-15T07:25:30.430Z,98951.81
2018-03-15T07:26:32.984Z,98947.12
2018-03-15T07:27:35.509Z,98956.91
2018-03-15T07:28:38.019Z,98953.59
2018-03-15T07:29:40.554Z,98951.02
2018-03-15T07:30:43.072Z,98952.58
2018-03-15T07:31:45.666Z,98952.17
2018-03-15T07:32:48.171Z,98951.95
2018-03-15T07:33:50.664Z,98948.63
2018-03-15T07:34:53.178Z,98946.06
2018-03-15T07:35:55.676Z,98950.77
2018-03-15T07:36:58.194Z,98944.08
2018-03-15T07:38:00.748Z,98950.15
2018-03-15T07:39:03.262Z,98944.23
2018-03-15T07:40:05.795Z,98948.92
2018-03-15T07:41:08.331Z,98938.52
2018-03-15T07:42:10.822Z,98933.78
2018-03-15T07:43:13.333Z,98947.52
2018-03-15T07:44:15.862Z,98945.34
2018-03-15T07:45:18.407Z,98934.52
2018-03-15T07:46:20.926Z,98937.27
2018-03-15T07:47:23.433Z,98932.92
2018-03-15T07:48:25.952Z,98931.95
2018-03-15T07:49:28.470Z,98934.87
2018-03-15T07:50:31.038Z,98933.11
2018-03-15T07:51:33.526Z,98935.85
2018-03-15T07:52:36.024Z,98938.78
2018-03-15T07:53:38.543Z,98931.12
2018-03-15T07:54:41.092Z,98927.97
2018-03-15T07:55:43.592Z,98933.64
2018-03-15T07:56:46.092Z,98928.55
2018-03-15T07:57:48.602Z,98925.59
2018-03-15T07:58:51.108Z,98915.58
2018-03-15T07:59:53.636Z,98924.22
2018-03-15T08:00:56.153Z,98921.07
2018-03-15T08:01:58.791Z,98934.41
2018-03-15T08:03:01.305Z,98939.09
2018-03-15T08:04:03.903Z,98935.55
2018-03-15T08:05:06.421Z,98943.00
2018-03-15T08:06:08.931Z,98940.83
2018-03-15T08:07:11.547Z,98934.55
2018-03-15T08:08:14.052Z,98933.75
2018-03-15T08:09:16.600Z,98934.73
2018-03-15T08:10:19.134Z,98944.52
2018-03-15T08:11:21.628Z,98936.28
2018-03-15T08:12:24.114Z,98941.95
2018-03-15T08:13:26.621Z,98938.80
2018-03-15T08:14:29.132Z,98938.41
2018-03-15T08:15:31.661Z,98927.61
2018-03-15T08:16:34.173Z,98936.06
2018-03-15T08:17:36.743Z,98930.75
2018-03-15T08:18:39.239Z,98938.41
2018-03-15T08:19:41.726Z,98928.80
2018-03-15T08:20:44.316Z,98926.23
2018-03-15T08:21:46.816Z,98928.00
2018-03-15T08:22:49.727Z,98930.75
2018-03-15T08:23:52.246Z,98932.13
2018-03-15T08:24:54.763Z,98925.05
2018-03-15T08:25:57.307Z,98925.44
2018-03-15T08:26:59.805Z,98920.92
2018-03-15T08:28:02.330Z,98922.88
2018-03-15T08:29:04.829Z,98917.78
2018-03-15T08:30:07.340Z,98917.56
2018-03-15T08:31:09.864Z,98925.22
2018-03-15T08:32:12.358Z,98924.25
2018-03-15T08:33:14.856Z,98918.47
2018-03-15T08:34:17.360Z,98914.31
2018-03-15T08:35:19.951Z,98918.39
2018-03-15T08:36:22.489Z,98918.17
2018-03-15T08:37:24.996Z,98917.66
2018-03-15T08:38:27.487Z,98909.30
2018-03-15T08:39:29.994Z,98924.48
2018-03-15T08:40:32.517Z,98913.41
2018-03-15T08:41:35.030Z,98909.45
2018-03-15T08:42:37.541Z,98911.81
2018-03-15T08:43:40.061Z,98913.00
2018-03-15T08:44:42.578Z,98896.56
2018-03-15T08:45:45.115Z,98907.62
2018-03-15T08:46:47.650Z,98891.71
2018-03-15T08:47:50.489Z,98900.16
2018-03-15T08:48:53.244Z,98891.62
2018-03-15T08:49:55.776Z,98899.76
2018-03-15T08:50:58.287Z,98896.63
2018-03-15T08:52:00.931Z,98895.66
2018-03-15T08:53:03.442Z,98899.05
2018-03-15T08:54:05.949Z,98882.83
2018-03-15T08:55:08.487Z,98892.20
2018-03-15T08:56:11.004Z,98883.14
2018-03-15T08:57:13.547Z,98889.59
2018-03-15T08:58:16.060Z,98882.08
2018-03-15T08:59:18.586Z,98873.50
2018-03-15T09:00:21.103Z,98878.32
2018-03-15T09:01:23.673Z,98877.17
2018-03-15T09:02:26.236Z,98874.08
2018-03-15T09:03:28.838Z,98864.88
2018-03-15T09:04:31.357Z,98884.07
2018-03-15T09:05:33.940Z,98874.88
2018-03-15T09:06:36.457Z,98869.00
2018-03-15T09:07:39.147Z,98873.61
2018-03-15T09:08:41.660Z,98872.15
2018-03-15T09:09:44.185Z,98869.94
2018-03-15T09:10:46.694Z,98874.28
2018-03-15T09:11:49.203Z,98863.02
2018-03-15T09:12:51.726Z,98865.22
2018-03-15T09:13:54.224Z,98869.33
2018-03-15T09:14:57.384Z,98870.12
2018-03-15T09:15:59.911Z,98860.94
2018-03-15T09:17:02.473Z,98864.59
2018-03-15T09:18:05.052Z,98869.28
2018-03-15T09:19:07.593Z,98857.58
2018-03-15T09:20:10.107Z,98861.59
2018-03-15T09:21:12.647Z,98861.73
2018-03-15T09:22:15.166Z,98856.20
2018-03-15T09:23:17.709Z,98853.24
2018-03-15T09:24:20.206Z,98850.77
2018-03-15T09:25:22.771Z,98851.03
2018-03-15T09:26:25.291Z,98852.63
2018-03-15T09:27:27.847Z,98843.26
2018-03-15T09:28:30.366Z,98849.22
2018-03-15T09:29:32.885Z,98840.73
2018-03-15T09:30:35.410Z,98834.97
2018-03-15T09:31:37.940Z,98827.80
2018-03-15T09:32:40.524Z,98835.18
2018-03-15T09:33:43.116Z,98829.26
2018-03-15T09:34:45.678Z,98836.28
2018-03-15T09:35:48.212Z,98823.56
2018-03-15T09:36:50.740Z,98824.36
2018-03-15T09:37:53.290Z,98822.06
2018-03-15T09:38:55.841Z,98823.34
2018-03-15T09:39:58.394Z,98818.75
2018-03-15T09:41:00.940Z,98812.61
2018-03-15T09:42:03.494Z,98819.70
2018-03-15T09:43:06.037Z,98820.86
2018-03-15T09:44:08.621Z,98824.64
2018-03-15T09:45:11.156Z,98816.05
2018-03-15T09:46:13.729Z,98812.72
2018-03-15T09:47:16.273Z,98808.62
2018-03-15T09:48:18.790Z,98809.00
2018-03-15T09:49:21.332Z,98807.27
2018-03-15T09:50:23.876Z,98806.50
2018-03-15T09:51:26.402Z,98807.48
2018-03-15T09:52:28.938Z,98806.30
2018-03-15T09:53:31.473Z,98802.36
2018-03-15T09:54:34.006Z,98806.81
2018-03-15T09:55:36.547Z,98803.87
2018-03-15T09:56:39.103Z,98806.73
2018-03-15T09:57:41.646Z,98804.31
2018-03-15T09:58:44.223Z,98804.77
2018-03-15T09:59:46.829Z,98814.88
2018-03-15T10:00:49.354Z,98811.99
2018-03-15T10:01:51.867Z,98807.22
2018-03-15T10:02:54.390Z,98809.05
2018-03-15T10:03:56.967Z,98812.44
2018-03-15T10:04:59.508Z,98808.76
2018-03-15T10:06:02.059Z,98799.28
2018-03-15T10:07:04.620Z,98808.19
2018-03-15T10:08:07.157Z,98800.38
2018-03-15T10:09:09.693Z,98808.66
2018-03-15T10:10:12.241Z,98798.68
2018-03-15T10:11:14.777Z,98786.75
2018-03-15T10:12:17.309Z,98796.77
2018-03-15T10:13:19.837Z,98797.80
2018-03-15T10:14:22.356Z,98788.59
2018-03-15T10:15:24.899Z,98794.32
2018-03-15T10:16:27.471Z,98794.75
2018-03-15T10:17:29.952Z,98786.36
2018-03-15T10:18:32.615Z,98789.72
2018-03-15T10:19:35.144Z,98791.89
2018-03-15T10:20:37.689Z,98795.06
2018-03-15T10:21:40.199Z,98793.90
2018-03-15T10:22:42.724Z,98791.19
2018-03-15T10:23:45.294Z,98791.43
2018-03-15T10:24:47.839Z,98807.76
2018-03-15T10:25:50.380Z,98789.94
2018-03-15T10:26:52.898Z,98786.58
2018-03-15T10:27:55.403Z,98791.49
2018-03-15T10:28:57.935Z,98777.36
2018-03-15T10:30:00.587Z,98778.91
2018-03-15T10:31:03.330Z,98772.84
2018-03-15T10:32:05.914Z,98792.25
2018-03-15T10:33:13.952Z,98781.63
2018-03-15T10:34:16.732Z,98780.08
2018-03-15T10:35:24.978Z,98780.66
2018-03-15T10:36:27.549Z,98782.42
2018-03-15T10:37:30.088Z,98777.84
2018-03-15T10:38:32.617Z,98780.38
2018-03-15T10:39:36.549Z,98773.09
2018-03-15T10:40:39.237Z,98772.44
2018-03-15T10:41:41.777Z,98775.73
2018-03-15T10:42:44.341Z,98780.77
2018-03-15T10:43:46.867Z,98781.78
2018-03-15T10:44:49.468Z,98780.63
2018-03-15T10:45:51.998Z,98784.77
2018-03-15T10:46:54.558Z,98783.40
2018-03-15T10:47:57.124Z,98778.33
2018-03-15T10:48:59.633Z,98778.36
2018-03-15T10:50:02.195Z,98774.67
2018-03-15T10:51:04.741Z,98776.66
2018-03-15T10:52:07.284Z,98779.06
2018-03-15T10:53:09.813Z,98769.27
2018-03-15T10:54:12.337Z,98777.55
2018-03-15T10:55:14.868Z,98779.70
2018-03-15T10:56:17.397Z,98767.56
2018-03-15T10:57:19.954Z,98765.02
2018-03-15T10:58:22.480Z,98758.95
2018-03-15T10:59:25.031Z,98761.33
2018-03-15T11:00:33.244Z,98765.30
2018-03-15T11:01:41.360Z,98753.75
2018-03-15T11:02:47.919Z,98760.38
2018-03-15T11:03:50.448Z,98755.47
2018-03-15T11:04:58.607Z,98761.15
2018-03-15T11:06:14.969Z,98760.97
2018-03-15T11:07:23.112Z,98758.25
2018-03-15T11:08:25.648Z,98757.84
2018-03-15T11:09:31.940Z,98759.98
2018-03-15T11:10:34.473Z,98751.16
2018-03-15T11:11:37.143Z,98750.95
2018-03-15T11:12:39.705Z,98753.70
2018-03-15T11:13:42.241Z,98750.95
2018-03-15T11:14:44.789Z,98757.02
2018-03-15T11:15:47.313Z,98759.20
2018-03-15T11:16:49.837Z,98759.98
2018-03-15T11:17:52.398Z,98756.48
2018-03-15T11:18:54.985Z,98745.48
2018-03-15T11:19:57.528Z,98752.78
2018-03-15T11:21:00.073Z,98745.12
2018-03-15T11:22:02.648Z,98740.81
2018-03-15T11:23:05.224Z,98739.05
2018-03-15T11:24:07.824Z,98745.52
2018-03-15T11:25:10.346Z,98739.84
2018-03-15T11:26:12.925Z,98738.06
2018-03-15T11:27:15.487Z,98742.38
2018-03-15T11:28:18.043Z,98740.20
2018-03-15T11:29:20.611Z,98749.61
2018-03-15T11:30:23.150Z,98741.16
2018-03-15T11:31:25.682Z,98745.85
2018-03-15T11:32:28.239Z,98739.56
2018-03-15T11:33:30.797Z,98732.73
2018-03-15T11:34:33.329Z,98736.88
2018-03-15T11:35:35.905Z,98735.50
2018-03-15T11:36:38.442Z,98736.88
2018-03-15T11:37:40.966Z,98738.03
2018-03-15T11:38:43.514Z,98737.64
2018-03-15T11:39:46.052Z,98741.95
2018-03-15T11:40:48.575Z,98744.69
2018-03-15T11:41:51.113Z,98731.54
2018-03-15T11:42:53.648Z,98740.55
2018-03-15T11:43:56.262Z,98735.05
2018-03-15T11:44:58.790Z,98733.28
2018-03-15T11:46:01.311Z,98726.98
2018-03-15T11:47:03.850Z,98736.00
2018-03-15T11:48:06.437Z,98724.03
2018-03-15T11:49:08.999Z,98722.66
2018-03-15T11:50:11.645Z,98728.36
2018-03-15T11:51:14.231Z,98719.33
2018-03-15T11:52:16.761Z,98723.45
2018-03-15T11:53:19.268Z,98719.88
2018-03-15T11:54:21.831Z,98717.90
2018-03-15T11:55:24.355Z,98718.45
2018-03-15T11:56:26.879Z,98712.31
2018-03-15T11:57:29.414Z,98711.92
2018-03-15T11:58:31.971Z,98715.06
2018-03-15T11:59:34.574Z,98712.37
2018-03-15T12:00:37.161Z,98711.98
2018-03-15T12:01:39.639Z,98716.89
2018-03-15T12:02:42.169Z,98722.75
2018-03-15T12:03:44.725Z,98716.62
2018-03-15T12:04:47.259Z,98717.39
2018-03-15T12:05:49.790Z,98717.56
2018-03-15T12:06:52.310Z,98719.49
2018-03-15T12:07:54.859Z,98715.92
2018-03-15T12:08:57.377Z,98715.10
2018-03-15T12:09:59.929Z,98719.38
2018-03-15T12:11:02.470Z,98719.16
2018-03-15T12:12:05.008Z,98716.36
2018-03-15T12:13:07.555Z,98721.45
2018-03-15T12:14:10.097Z,98715.92
2018-03-15T12:15:12.644Z,98717.27